Sion, Switzerland
Current Conditions -  °F | °C
As of 4:50 PM on Sunday 23 Nov 2014 (Local Time) from LSMS Reporting Station
Broken Clouds Broken Clouds  
Wind Chill: 55°   Ceiling: 13000
Heat Index: 55°   Visibility: 6mi
Dew Point: 39°   Wind: 5mph
Humidity: 54%   Direction: 50°NE
Pressure: 30.18"   Gusts: NA
Location:  46.25°N, 7.35°E
Report Text: LSMS 231550Z 05004KT 020V090 9999 BKN130 13/04 Q1022
Loading
Personal Weather Stations






























Interactive Weather Map New forecast layout! Learn more

10-Day Weather Forecast

Advertisements
Track Severe Weather on mobile